createdAt,value
2022-09-14T00:01:30.164Z,1.50
2022-09-14T00:03:59.794Z,1.70
2022-09-14T00:06:27.981Z,1.40
2022-09-14T00:08:58.051Z,2.05
2022-09-14T00:11:27.548Z,1.67
2022-09-14T00:13:56.086Z,1.90
2022-09-14T00:16:34.745Z,1.43
2022-09-14T00:19:06.142Z,1.48
2022-09-14T00:21:35.527Z,1.10
2022-09-14T00:26:30.300Z,1.58
2022-09-14T00:28:59.810Z,1.30
2022-09-14T00:31:27.014Z,1.27
2022-09-14T00:33:54.108Z,1.05
2022-09-14T00:36:24.970Z,1.42
2022-09-14T00:38:53.144Z,0.90
2022-09-14T00:41:22.939Z,1.63
2022-09-14T00:44:01.890Z,1.23
2022-09-14T00:46:31.261Z,1.35
2022-09-14T00:51:31.709Z,1.00
2022-09-14T00:54:01.117Z,1.80
2022-09-14T00:56:28.318Z,1.27
2022-09-14T00:58:58.447Z,1.30
2022-09-14T01:01:26.438Z,1.35
2022-09-14T01:03:53.590Z,1.23
2022-09-14T01:06:44.449Z,1.35
2022-09-14T01:09:38.922Z,1.00
2022-09-14T01:12:29.758Z,0.90
2022-09-14T01:15:14.800Z,1.40
2022-09-14T01:17:58.707Z,2.05
2022-09-14T01:20:40.010Z,1.30
2022-09-14T01:23:35.608Z,1.10
2022-09-14T01:26:21.321Z,1.40
2022-09-14T01:29:01.286Z,1.30
2022-09-14T01:31:34.979Z,2.53
2022-09-14T01:34:07.892Z,1.10
2022-09-14T01:36:38.374Z,1.35
2022-09-14T01:39:07.233Z,1.70
2022-09-14T01:41:35.312Z,1.20
2022-09-14T01:44:26.274Z,1.33
2022-09-14T01:46:57.008Z,0.85
2022-09-14T01:49:32.169Z,1.17
2022-09-14T01:52:09.059Z,1.27
2022-09-14T01:54:48.295Z,1.02
2022-09-14T02:00:01.768Z,1.50
2022-09-14T02:02:40.177Z,1.60
2022-09-14T02:05:23.760Z,1.08
2022-09-14T02:07:50.917Z,1.52
2022-09-14T02:10:18.233Z,1.05
2022-09-14T02:12:45.847Z,1.40
2022-09-14T02:15:14.592Z,1.33
2022-09-14T02:17:42.532Z,1.63
2022-09-14T02:20:34.198Z,1.40
2022-09-14T02:23:01.319Z,1.33
2022-09-14T02:25:28.410Z,0.95
2022-09-14T02:27:55.559Z,1.00
2022-09-14T02:30:22.910Z,1.20
2022-09-14T02:33:13.245Z,1.33
2022-09-14T02:35:55.637Z,1.40
2022-09-14T02:38:40.565Z,1.60
2022-09-14T02:41:17.701Z,1.75
2022-09-14T02:43:54.753Z,0.98
2022-09-14T02:46:42.793Z,0.95
2022-09-14T02:49:28.233Z,1.20
2022-09-14T02:52:20.001Z,1.20
2022-09-14T02:54:57.132Z,1.20
2022-09-14T02:57:24.557Z,1.10
2022-09-14T02:59:54.155Z,1.20
2022-09-14T03:02:22.088Z,1.77
2022-09-14T03:04:49.308Z,1.75
2022-09-14T03:07:16.398Z,1.50
2022-09-14T03:09:43.467Z,2.35
2022-09-14T03:12:10.520Z,1.10
2022-09-14T03:14:37.583Z,2.38
2022-09-14T03:17:04.605Z,1.20
2022-09-14T03:19:31.647Z,1.45
2022-09-14T03:21:58.710Z,1.33
2022-09-14T03:24:25.754Z,0.95
2022-09-14T03:26:52.852Z,1.05
2022-09-14T03:29:19.968Z,1.10
2022-09-14T03:31:47.012Z,1.30
2022-09-14T03:34:14.341Z,1.10
2022-09-14T03:36:41.415Z,1.55
2022-09-14T03:39:09.137Z,0.93
2022-09-14T03:41:36.175Z,1.05
2022-09-14T03:44:03.265Z,1.30
2022-09-14T03:46:30.338Z,1.70
2022-09-14T03:48:57.471Z,1.20
2022-09-14T03:51:24.567Z,1.17
2022-09-14T03:53:52.050Z,1.33
2022-09-14T03:56:21.533Z,1.15
2022-09-14T03:58:49.689Z,1.00
2022-09-14T04:01:19.360Z,1.05
2022-09-14T04:03:47.593Z,1.17
2022-09-14T04:06:16.023Z,1.23
2022-09-14T04:08:45.003Z,1.80
2022-09-14T04:11:14.140Z,1.90
2022-09-14T04:13:41.780Z,1.85
2022-09-14T04:16:09.172Z,1.65
2022-09-14T04:18:36.484Z,1.27
2022-09-14T04:21:08.570Z,2.15
2022-09-14T04:23:56.639Z,1.10
2022-09-14T04:26:27.097Z,1.05
2022-09-14T04:28:56.496Z,1.13
2022-09-14T04:33:51.343Z,1.77
2022-09-14T04:36:21.291Z,1.35
2022-09-14T04:38:48.665Z,1.50
2022-09-14T04:41:18.217Z,1.55
2022-09-14T04:43:46.580Z,1.60
2022-09-14T04:46:16.459Z,1.25
2022-09-14T04:48:44.369Z,2.00
2022-09-14T04:51:14.310Z,1.20
2022-09-14T04:53:41.444Z,1.20
2022-09-14T04:56:10.448Z,1.40
2022-09-14T04:58:41.305Z,1.92
2022-09-14T05:01:11.755Z,1.20
2022-09-14T05:03:39.587Z,1.23
2022-09-14T05:06:10.706Z,0.70
2022-09-14T05:08:38.674Z,0.82
2022-09-14T05:11:12.162Z,0.88
2022-09-14T05:13:39.253Z,1.05
2022-09-14T05:16:07.800Z,0.80
2022-09-14T05:18:35.301Z,1.40
2022-09-14T05:21:08.684Z,1.20
2022-09-14T05:23:36.645Z,1.23
2022-09-14T05:26:05.057Z,1.23
2022-09-14T05:28:33.001Z,1.87
2022-09-14T05:31:03.465Z,1.40
2022-09-14T05:33:30.556Z,1.27
2022-09-14T05:36:06.381Z,1.20
2022-09-14T05:38:36.425Z,1.42
2022-09-14T05:41:05.024Z,1.63
2022-09-14T05:43:32.494Z,1.30
2022-09-14T05:46:07.535Z,1.17
2022-09-14T05:48:36.362Z,1.25
2022-09-14T05:51:07.261Z,1.33
2022-09-14T05:53:34.617Z,1.13
2022-09-14T05:56:09.955Z,1.27
2022-09-14T05:58:38.234Z,1.25
2022-09-14T06:01:16.331Z,1.55
2022-09-14T06:03:44.272Z,1.45
2022-09-14T06:06:13.186Z,1.50
2022-09-14T06:08:40.776Z,1.70
2022-09-14T06:11:12.200Z,1.77
2022-09-14T06:13:39.539Z,1.30
2022-09-14T06:16:12.549Z,1.10
2022-09-14T06:18:41.385Z,1.48
2022-09-14T06:21:10.512Z,1.70
2022-09-14T06:23:38.237Z,1.80
2022-09-14T06:26:05.883Z,1.33
2022-09-14T06:28:34.396Z,1.70
2022-09-14T06:31:07.478Z,1.50
2022-09-14T06:33:35.286Z,1.20
2022-09-14T06:36:09.597Z,1.67
2022-09-14T06:38:36.701Z,1.77
2022-09-14T06:41:06.851Z,1.67
2022-09-14T06:43:37.177Z,1.60
2022-09-14T06:46:12.301Z,2.83
2022-09-14T06:48:45.667Z,3.83
2022-09-14T06:51:15.796Z,4.00
2022-09-14T06:53:43.590Z,3.97
2022-09-14T06:56:11.163Z,5.22
2022-09-14T06:58:38.403Z,4.93
2022-09-14T07:01:08.719Z,4.43
2022-09-14T07:03:37.353Z,5.35
2022-09-14T07:06:06.475Z,5.18
2022-09-14T07:08:34.622Z,5.10
2022-09-14T07:11:03.052Z,5.15
2022-09-14T07:13:31.802Z,5.03
2022-09-14T07:15:59.217Z,7.45
2022-09-14T07:18:32.744Z,6.60
2022-09-14T07:21:07.037Z,7.57
2022-09-14T07:23:36.541Z,7.75
2022-09-14T07:26:07.645Z,7.45
2022-09-14T07:28:35.894Z,9.90
2022-09-14T07:31:04.081Z,9.48
2022-09-14T07:33:31.261Z,10.82
2022-09-14T07:36:09.661Z,10.15
2022-09-14T07:38:51.663Z,11.00
2022-09-14T07:41:24.816Z,10.15
2022-09-14T07:43:54.119Z,10.80
2022-09-14T07:48:49.156Z,10.43
2022-09-14T07:51:16.532Z,9.65
2022-09-14T07:53:43.597Z,9.95
2022-09-14T07:56:12.260Z,10.63
2022-09-14T07:58:39.706Z,11.30
2022-09-14T08:01:12.547Z,11.10
2022-09-14T08:03:42.013Z,10.73
2022-09-14T08:06:10.793Z,10.30
2022-09-14T08:08:40.257Z,10.95
2022-09-14T08:11:15.845Z,9.88
2022-09-14T08:13:45.343Z,11.43
2022-09-14T08:16:13.282Z,9.70
2022-09-14T08:18:40.502Z,9.50
2022-09-14T08:21:13.456Z,9.55
2022-09-14T08:23:41.593Z,12.07
2022-09-14T08:26:13.605Z,9.85
2022-09-14T08:28:41.686Z,10.00
2022-09-14T08:31:11.683Z,9.40
2022-09-14T08:33:42.434Z,10.65
2022-09-14T08:36:11.400Z,10.95
2022-09-14T08:38:38.741Z,10.32
2022-09-14T08:41:28.662Z,10.05
2022-09-14T08:44:06.319Z,10.43
2022-09-14T08:46:44.208Z,10.50
2022-09-14T08:49:19.411Z,10.07
2022-09-14T08:51:46.549Z,10.00
2022-09-14T08:54:13.643Z,10.32
2022-09-14T08:56:45.297Z,9.60
2022-09-14T08:59:38.367Z,10.68
2022-09-14T09:02:20.503Z,9.18
2022-09-14T09:05:00.094Z,10.60
2022-09-14T09:07:34.947Z,10.00
2022-09-14T09:10:05.485Z,9.98
2022-09-14T09:12:47.666Z,10.38
2022-09-14T09:15:21.105Z,10.00
2022-09-14T09:17:53.529Z,10.52
2022-09-14T09:20:24.096Z,9.45
2022-09-14T09:23:11.375Z,9.45
2022-09-14T09:25:47.469Z,9.15
2022-09-14T09:28:16.407Z,10.18
2022-09-14T09:30:45.012Z,8.88
2022-09-14T09:33:16.870Z,8.80
2022-09-14T09:36:07.025Z,9.15
2022-09-14T09:38:34.851Z,8.88
2022-09-14T09:41:12.889Z,8.43
2022-09-14T09:43:59.198Z,8.25
2022-09-14T09:46:29.939Z,8.18
2022-09-14T09:48:57.191Z,8.05
2022-09-14T09:51:24.467Z,8.27
2022-09-14T09:53:52.823Z,7.40
2022-09-14T09:56:26.296Z,7.50
2022-09-14T09:58:53.711Z,6.80
2022-09-14T10:01:31.167Z,6.28
2022-09-14T10:04:04.369Z,7.47
2022-09-14T10:06:32.970Z,8.52
2022-09-14T10:09:00.280Z,7.28
2022-09-14T10:11:38.261Z,6.72
2022-09-14T10:14:19.668Z,6.80
2022-09-14T10:16:47.525Z,8.27
2022-09-14T10:19:20.637Z,6.53
2022-09-14T10:22:17.491Z,7.40
2022-09-14T10:24:57.331Z,6.70
2022-09-14T10:27:39.718Z,6.60
2022-09-14T10:30:14.008Z,6.88
2022-09-14T10:32:46.454Z,6.10
2022-09-14T10:35:15.539Z,5.53
2022-09-14T10:38:15.889Z,4.85
2022-09-14T10:40:48.441Z,4.38
2022-09-14T10:43:33.309Z,4.07
2022-09-14T10:46:04.524Z,3.92
2022-09-14T10:49:03.632Z,4.07
2022-09-14T10:54:34.316Z,4.95
2022-09-14T10:57:05.198Z,6.13
2022-09-14T10:59:36.405Z,6.43
2022-09-14T11:02:22.604Z,6.55
2022-09-14T11:05:44.097Z,7.47
2022-09-14T11:08:22.972Z,6.07
2022-09-14T11:11:22.751Z,6.78
2022-09-14T11:14:12.636Z,6.28
2022-09-14T11:17:07.067Z,5.55
2022-09-14T11:19:52.879Z,6.53
2022-09-14T11:22:38.215Z,6.28
2022-09-14T11:25:14.220Z,6.85
2022-09-14T11:27:48.867Z,5.75
2022-09-14T11:30:19.736Z,5.25
2022-09-14T11:33:16.293Z,4.88
2022-09-14T11:35:51.826Z,5.15
2022-09-14T11:38:21.595Z,4.72
2022-09-14T11:41:13.457Z,5.40
2022-09-14T11:43:55.942Z,4.25
2022-09-14T11:46:50.686Z,4.78
2022-09-14T11:49:20.583Z,4.35
2022-09-14T11:52:02.388Z,5.28
2022-09-14T11:54:29.457Z,4.25
2022-09-14T11:57:02.979Z,4.00
2022-09-14T11:59:42.209Z,5.82
2022-09-14T12:02:27.850Z,5.35
2022-09-14T12:05:07.365Z,6.70
2022-09-14T12:07:42.215Z,6.03
2022-09-14T12:10:15.344Z,7.43
2022-09-14T12:12:48.977Z,7.20
2022-09-14T12:15:31.526Z,6.32
2022-09-14T12:18:07.742Z,7.57
2022-09-14T12:20:43.385Z,7.50
2022-09-14T12:23:29.090Z,8.43
2022-09-14T12:26:30.269Z,9.20
2022-09-14T12:29:04.331Z,10.20
2022-09-14T12:31:59.488Z,8.18
2022-09-14T12:34:31.694Z,9.52
2022-09-14T12:37:02.345Z,8.10
2022-09-14T12:39:34.681Z,10.65
2022-09-14T12:42:25.257Z,9.80
2022-09-14T12:44:52.905Z,9.23
2022-09-14T12:47:25.749Z,9.70
2022-09-14T12:49:57.821Z,9.48
2022-09-14T12:52:39.079Z,8.95
2022-09-14T12:55:34.594Z,8.38
2022-09-14T12:58:19.916Z,9.43
2022-09-14T13:01:14.890Z,6.57
2022-09-14T13:03:54.253Z,7.45
2022-09-14T13:06:23.455Z,7.57
2022-09-14T13:11:24.505Z,6.90
2022-09-14T13:13:52.057Z,6.38
2022-09-14T13:16:29.687Z,5.93
2022-09-14T13:19:03.203Z,6.40
2022-09-14T13:21:30.378Z,5.63
2022-09-14T13:23:57.729Z,6.07
2022-09-14T13:26:30.109Z,5.72
2022-09-14T13:29:00.301Z,4.75
2022-09-14T13:31:33.394Z,5.07
2022-09-14T13:34:02.814Z,4.32
2022-09-14T13:36:33.770Z,4.18
2022-09-14T13:39:03.113Z,5.40
2022-09-14T13:41:31.827Z,3.88
2022-09-14T13:43:59.746Z,5.35
2022-09-14T13:46:27.887Z,4.15
2022-09-14T13:48:55.880Z,5.70
2022-09-14T13:51:28.283Z,4.03
2022-09-14T13:53:57.637Z,4.72
2022-09-14T13:56:33.613Z,4.40
2022-09-14T13:59:12.618Z,4.57
2022-09-14T14:01:42.545Z,3.47
2022-09-14T14:04:39.297Z,3.20
2022-09-14T14:07:31.545Z,4.85
2022-09-14T14:09:59.778Z,3.90
2022-09-14T14:12:36.880Z,4.47
2022-09-14T14:15:25.489Z,3.35
2022-09-14T14:17:53.557Z,2.50
2022-09-14T14:20:26.793Z,2.92
2022-09-14T14:23:13.261Z,3.00
2022-09-14T14:25:46.254Z,2.60
2022-09-14T14:28:15.984Z,2.60
2022-09-14T14:30:43.453Z,3.08
2022-09-14T14:33:18.580Z,3.63
2022-09-14T14:35:51.631Z,3.90
2022-09-14T14:38:18.831Z,2.92
2022-09-14T14:40:46.798Z,3.88
2022-09-14T14:43:18.528Z,2.88
2022-09-14T14:45:45.695Z,3.33
2022-09-14T14:48:13.410Z,3.63
2022-09-14T14:50:40.479Z,4.18
2022-09-14T14:53:07.711Z,2.65
2022-09-14T14:55:35.858Z,2.70
2022-09-14T14:58:07.049Z,2.42
2022-09-14T15:00:35.813Z,2.90
2022-09-14T15:03:03.053Z,2.10
2022-09-14T15:05:31.021Z,2.50
2022-09-14T15:07:58.244Z,2.30
2022-09-14T15:10:27.566Z,2.00
2022-09-14T15:12:54.823Z,2.80
2022-09-14T15:15:24.831Z,2.55
2022-09-14T15:17:53.112Z,2.67
2022-09-14T15:20:20.841Z,2.63
2022-09-14T15:22:48.734Z,2.50
2022-09-14T15:25:17.770Z,2.20
2022-09-14T15:27:45.259Z,2.13
2022-09-14T15:30:13.440Z,2.60
2022-09-14T15:32:41.195Z,2.65
2022-09-14T15:35:12.406Z,2.45
2022-09-14T15:37:39.662Z,2.47
2022-09-14T15:40:07.254Z,2.75
2022-09-14T15:42:34.365Z,3.53
2022-09-14T15:45:01.442Z,1.30
2022-09-14T15:47:30.730Z,1.08
2022-09-14T15:50:01.228Z,1.38
2022-09-14T15:52:28.347Z,0.98
2022-09-14T15:54:55.482Z,0.80
2022-09-14T15:57:22.528Z,1.20
2022-09-14T15:59:49.608Z,1.25
2022-09-14T16:02:20.019Z,1.92
2022-09-14T16:04:47.151Z,1.77
2022-09-14T16:07:14.308Z,3.78
2022-09-14T16:09:42.199Z,1.60
2022-09-14T16:12:10.872Z,2.22
2022-09-14T16:14:38.187Z,2.28
2022-09-14T16:17:05.762Z,2.53
2022-09-14T16:19:32.943Z,2.10
2022-09-14T16:22:01.356Z,2.00
2022-09-14T16:24:28.871Z,2.35
2022-09-14T16:26:57.746Z,1.40
2022-09-14T16:29:25.422Z,1.92
2022-09-14T16:31:52.977Z,2.35
2022-09-14T16:34:26.646Z,1.70
2022-09-14T16:36:54.265Z,2.22
2022-09-14T16:39:24.184Z,1.50
2022-09-14T16:41:52.116Z,1.55
2022-09-14T16:44:21.903Z,3.00
2022-09-14T16:46:49.554Z,2.35
2022-09-14T16:49:17.647Z,3.35
2022-09-14T16:51:45.201Z,2.85
2022-09-14T16:54:17.593Z,2.50
2022-09-14T16:56:45.233Z,2.78
2022-09-14T16:59:12.966Z,3.13
2022-09-14T17:01:42.890Z,2.40
2022-09-14T17:04:13.784Z,2.55
2022-09-14T17:06:44.129Z,2.67
2022-09-14T17:09:14.491Z,1.77
2022-09-14T17:11:41.903Z,2.55
2022-09-14T17:14:16.500Z,3.00
2022-09-14T17:16:43.645Z,2.53
2022-09-14T17:19:11.748Z,2.30
2022-09-14T17:21:41.575Z,2.50
2022-09-14T17:24:09.764Z,1.92
2022-09-14T17:26:37.509Z,2.67
2022-09-14T17:29:06.586Z,1.83
2022-09-14T17:31:37.828Z,2.53
2022-09-14T17:34:07.006Z,2.35
2022-09-14T17:36:34.505Z,1.60
2022-09-14T17:39:05.064Z,1.85
2022-09-14T17:41:37.256Z,2.30
2022-09-14T17:44:06.070Z,1.70
2022-09-14T17:46:33.719Z,1.67
2022-09-14T17:49:03.977Z,1.63
2022-09-14T17:51:32.489Z,1.83
2022-09-14T17:54:01.103Z,1.80
2022-09-14T17:56:29.047Z,2.00
2022-09-14T17:59:05.493Z,2.10
2022-09-14T18:01:33.614Z,1.65
2022-09-14T18:04:04.324Z,1.77
2022-09-14T18:06:34.587Z,2.30
2022-09-14T18:09:06.934Z,1.75
2022-09-14T18:11:35.016Z,2.20
2022-09-14T18:14:02.707Z,2.45
2022-09-14T18:16:29.875Z,1.90
2022-09-14T18:18:57.621Z,2.35
2022-09-14T18:21:26.319Z,1.60
2022-09-14T18:23:54.662Z,2.05
2022-09-14T18:26:23.229Z,1.92
2022-09-14T18:28:53.292Z,1.83
2022-09-14T18:31:20.522Z,1.77
2022-09-14T18:33:53.391Z,2.78
2022-09-14T18:36:21.675Z,2.13
2022-09-14T18:38:49.596Z,2.22
2022-09-14T18:41:17.597Z,1.67
2022-09-14T18:43:46.991Z,2.03
2022-09-14T18:46:17.352Z,1.77
2022-09-14T18:48:44.639Z,2.50
2022-09-14T18:51:13.353Z,1.60
2022-09-14T18:53:41.006Z,1.92
2022-09-14T18:56:11.615Z,1.55
2022-09-14T18:58:41.543Z,1.88
2022-09-14T19:01:10.532Z,1.48
2022-09-14T19:03:39.412Z,1.60
2022-09-14T19:06:09.030Z,1.58
2022-09-14T19:08:36.757Z,1.67
2022-09-14T19:11:09.478Z,1.58
2022-09-14T19:13:37.316Z,1.85
2022-09-14T19:16:08.703Z,1.50
2022-09-14T19:18:36.439Z,2.38
2022-09-14T19:21:07.120Z,1.23
2022-09-14T19:23:36.354Z,1.80
2022-09-14T19:26:06.096Z,1.80
2022-09-14T19:28:33.844Z,1.88
2022-09-14T19:31:06.160Z,1.50
2022-09-14T19:33:33.459Z,2.05
2022-09-14T19:36:14.859Z,1.70
2022-09-14T19:38:42.431Z,1.70
2022-09-14T19:41:09.847Z,1.73
2022-09-14T19:43:37.035Z,1.50
2022-09-14T19:46:09.923Z,2.15
2022-09-14T19:48:37.593Z,1.48
2022-09-14T19:51:07.486Z,1.30
2022-09-14T19:53:36.282Z,1.65
2022-09-14T19:56:06.475Z,1.00
2022-09-14T19:58:39.478Z,1.50
2022-09-14T20:01:07.613Z,1.42
2022-09-14T20:03:36.726Z,1.15
2022-09-14T20:06:10.257Z,1.20
2022-09-14T20:08:37.895Z,1.50
2022-09-14T20:11:10.072Z,1.15
2022-09-14T20:13:38.268Z,1.00
2022-09-14T20:16:12.472Z,1.50
2022-09-14T20:18:43.724Z,1.50
2022-09-14T20:21:12.699Z,1.30
2022-09-14T20:23:57.997Z,1.83
2022-09-14T20:26:29.192Z,1.48
2022-09-14T20:28:59.919Z,1.30
2022-09-14T20:31:28.494Z,1.60
2022-09-14T20:33:56.668Z,1.60
2022-09-14T20:36:28.610Z,1.33
2022-09-14T20:38:57.737Z,1.00
2022-09-14T20:41:30.937Z,1.60
2022-09-14T20:43:58.067Z,1.30
2022-09-14T20:46:28.221Z,1.58
2022-09-14T20:48:55.520Z,1.83
2022-09-14T20:51:24.982Z,2.05
2022-09-14T20:56:21.871Z,1.70
2022-09-14T20:58:52.447Z,1.50
2022-09-14T21:01:21.230Z,1.42
2022-09-14T21:03:50.155Z,1.67
2022-09-14T21:06:20.497Z,1.77
2022-09-14T21:08:47.862Z,1.70
2022-09-14T21:11:17.462Z,1.60
2022-09-14T21:13:45.069Z,1.70
2022-09-14T21:16:26.206Z,1.95
2022-09-14T21:19:07.789Z,1.17
2022-09-14T21:21:35.034Z,1.38
2022-09-14T21:24:02.894Z,1.60
2022-09-14T21:26:33.810Z,1.55
2022-09-14T21:29:05.372Z,1.90
2022-09-14T21:31:34.659Z,1.60
2022-09-14T21:36:36.505Z,2.23
2022-09-14T21:39:08.389Z,2.00
2022-09-14T21:41:37.215Z,1.50
2022-09-14T21:44:05.096Z,1.70
2022-09-14T21:46:32.563Z,2.10
2022-09-14T21:49:00.095Z,1.67
2022-09-14T21:51:30.676Z,1.70
2022-09-14T21:54:00.224Z,2.88
2022-09-14T21:56:29.897Z,1.70
2022-09-14T21:59:00.012Z,1.92
2022-09-14T22:01:28.316Z,1.77
2022-09-14T22:03:56.879Z,1.80
2022-09-14T22:06:28.053Z,1.80
2022-09-14T22:08:57.426Z,1.48
2022-09-14T22:14:02.303Z,1.30
2022-09-14T22:16:32.965Z,1.30
2022-09-14T22:19:03.938Z,1.60
2022-09-14T22:21:33.275Z,1.70
2022-09-14T22:26:31.274Z,3.25
2022-09-14T22:28:59.245Z,2.45
2022-09-14T22:31:28.621Z,2.00
2022-09-14T22:36:23.773Z,2.13
2022-09-14T22:38:51.058Z,2.00
2022-09-14T22:41:22.069Z,2.15
2022-09-14T22:43:49.644Z,1.90
2022-09-14T22:46:17.230Z,1.88
2022-09-14T22:48:45.304Z,2.28
2022-09-14T22:51:15.031Z,2.20
2022-09-14T22:53:42.559Z,2.10
2022-09-14T22:56:31.248Z,2.33
2022-09-14T22:58:59.145Z,2.20
2022-09-14T23:01:32.957Z,2.63
2022-09-14T23:04:03.535Z,2.60
2022-09-14T23:06:34.183Z,2.90
2022-09-14T23:09:01.671Z,2.47
2022-09-14T23:11:29.332Z,2.88
2022-09-14T23:13:58.726Z,2.47
2022-09-14T23:18:57.037Z,1.77
2022-09-14T23:21:24.959Z,2.22
2022-09-14T23:23:56.984Z,2.30
2022-09-14T23:26:24.819Z,2.20
2022-09-14T23:29:03.255Z,2.30
2022-09-14T23:31:32.061Z,2.77
2022-09-14T23:34:00.606Z,1.95
2022-09-14T23:36:28.288Z,1.50
2022-09-14T23:38:56.012Z,1.70
2022-09-14T23:41:25.366Z,2.03
2022-09-14T23:46:20.281Z,2.17
2022-09-14T23:48:47.415Z,1.90
2022-09-14T23:51:15.087Z,1.63
2022-09-14T23:53:43.050Z,1.70
2022-09-14T23:56:10.874Z,2.15
2022-09-14T23:58:38.255Z,2.40
